createdAt,value
2022-12-25T00:00:20.179Z,3.17
2022-12-25T00:04:42.740Z,3.16
2022-12-25T00:08:44.669Z,3.17
2022-12-25T00:12:47.004Z,3.16
2022-12-25T00:16:49.023Z,3.12
2022-12-25T00:21:03.106Z,3.09
2022-12-25T00:25:05.383Z,3.09
2022-12-25T00:29:11.510Z,3.08
2022-12-25T00:33:14.715Z,3.10
2022-12-25T00:37:16.653Z,3.15
2022-12-25T00:41:39.747Z,3.18
2022-12-25T00:45:41.699Z,3.17
2022-12-25T00:49:44.154Z,3.15
2022-12-25T00:53:45.985Z,3.12
2022-12-25T00:57:47.896Z,3.13
2022-12-25T01:01:50.053Z,3.14
2022-12-25T01:06:01.182Z,3.14
2022-12-25T01:10:21.873Z,3.12
2022-12-25T01:14:23.757Z,3.09
2022-12-25T01:18:25.601Z,3.12
2022-12-25T01:22:27.890Z,3.15
2022-12-25T01:26:30.185Z,3.14
2022-12-25T01:30:33.103Z,3.13
2022-12-25T01:34:35.016Z,3.13
2022-12-25T01:38:36.862Z,3.14
2022-12-25T01:42:38.807Z,3.15
2022-12-25T01:46:41.889Z,3.17
2022-12-25T01:50:47.261Z,3.20
2022-12-25T01:54:55.456Z,3.21
2022-12-25T01:58:59.041Z,3.21
2022-12-25T02:03:01.711Z,3.21
2022-12-25T02:07:07.040Z,3.20
2022-12-25T02:11:28.897Z,3.25
2022-12-25T02:16:13.043Z,3.28
2022-12-25T02:20:39.278Z,3.26
2022-12-25T02:25:12.017Z,3.20
2022-12-25T02:29:41.867Z,3.17
2022-12-25T02:34:02.822Z,3.14
2022-12-25T02:38:26.665Z,3.14
2022-12-25T02:42:48.547Z,3.13
2022-12-25T02:47:10.738Z,3.09
2022-12-25T02:51:34.873Z,3.08
2022-12-25T02:55:58.654Z,3.05
2022-12-25T03:00:20.851Z,3.03
2022-12-25T03:04:43.853Z,3.03
2022-12-25T03:08:50.142Z,3.04
2022-12-25T03:12:58.726Z,3.07
2022-12-25T03:17:00.785Z,3.04
2022-12-25T03:21:21.651Z,3.00
2022-12-25T03:25:42.093Z,2.98
2022-12-25T03:30:02.613Z,2.99
2022-12-25T03:34:29.917Z,3.00
2022-12-25T03:39:29.368Z,3.02
2022-12-25T03:44:18.950Z,3.00
2022-12-25T03:48:41.074Z,2.97
2022-12-25T03:53:04.144Z,2.99
2022-12-25T03:57:25.233Z,3.04
2022-12-25T04:01:45.836Z,3.08
2022-12-25T04:06:06.503Z,3.08
2022-12-25T04:10:27.637Z,3.04
2022-12-25T04:14:48.263Z,3.04
2022-12-25T04:19:08.807Z,3.06
2022-12-25T04:23:29.416Z,3.12
2022-12-25T04:27:50.023Z,3.17
2022-12-25T04:32:10.696Z,3.12
2022-12-25T04:36:12.612Z,3.05
2022-12-25T04:40:14.636Z,3.01
2022-12-25T04:44:16.540Z,2.99
2022-12-25T04:48:18.361Z,2.96
2022-12-25T04:52:20.255Z,2.91
2022-12-25T04:56:22.526Z,2.90
2022-12-25T05:00:24.334Z,2.92
2022-12-25T05:04:26.215Z,2.90
2022-12-25T05:08:29.486Z,2.84
2022-12-25T05:12:31.324Z,2.87
2022-12-25T05:16:33.275Z,2.90
2022-12-25T05:20:39.909Z,2.95
2022-12-25T05:24:42.365Z,2.98
2022-12-25T05:28:44.289Z,2.96
2022-12-25T05:32:47.543Z,2.93
2022-12-25T05:36:49.361Z,2.91
2022-12-25T05:40:51.783Z,2.92
2022-12-25T05:44:53.832Z,2.98
2022-12-25T05:48:55.621Z,3.02
2022-12-25T05:53:00.256Z,3.02
2022-12-25T05:57:06.300Z,3.00
2022-12-25T06:01:16.743Z,3.03
2022-12-25T06:05:18.683Z,3.09
2022-12-25T06:09:20.604Z,3.11
2022-12-25T06:13:22.478Z,3.08
2022-12-25T06:17:26.356Z,3.05
2022-12-25T06:21:28.190Z,3.05
2022-12-25T06:25:30.088Z,3.10
2022-12-25T06:29:31.940Z,3.16
2022-12-25T06:33:34.023Z,3.15
2022-12-25T06:37:36.039Z,3.10
2022-12-25T06:41:37.940Z,3.07
2022-12-25T06:45:39.814Z,3.08
2022-12-25T06:49:41.693Z,3.15
2022-12-25T06:53:43.583Z,3.24
2022-12-25T06:57:45.451Z,3.28
2022-12-25T07:01:50.084Z,3.29
2022-12-25T07:05:52.170Z,3.29
2022-12-25T07:09:54.087Z,3.27
2022-12-25T07:13:57.419Z,3.34
2022-12-25T07:17:59.398Z,3.42
2022-12-25T07:22:01.340Z,3.46
2022-12-25T07:26:03.488Z,3.48
2022-12-25T07:30:06.220Z,3.49
2022-12-25T07:34:08.149Z,3.51
2022-12-25T07:38:10.340Z,3.54
2022-12-25T07:42:13.684Z,3.58
2022-12-25T07:46:15.665Z,3.61
2022-12-25T07:50:18.026Z,3.62
2022-12-25T07:54:20.293Z,3.59
2022-12-25T07:58:23.638Z,3.57
2022-12-25T08:02:28.426Z,3.61
2022-12-25T08:06:33.623Z,3.64
2022-12-25T08:10:35.574Z,3.68
2022-12-25T08:14:37.391Z,3.70
2022-12-25T08:18:40.208Z,3.71
2022-12-25T08:22:42.085Z,3.72
2022-12-25T08:26:43.943Z,3.76
2022-12-25T08:30:45.898Z,3.79
2022-12-25T08:34:48.824Z,3.87
2022-12-25T08:38:51.021Z,3.94
2022-12-25T08:42:55.945Z,3.95
2022-12-25T08:46:57.924Z,3.96
2022-12-25T08:51:01.326Z,3.98
2022-12-25T08:55:03.707Z,4.03
2022-12-25T08:59:05.955Z,4.06
2022-12-25T09:03:08.037Z,4.05
2022-12-25T09:07:10.792Z,4.06
2022-12-25T09:11:14.437Z,4.10
2022-12-25T09:15:16.515Z,4.14
2022-12-25T09:19:18.553Z,4.20
2022-12-25T09:23:20.720Z,4.23
2022-12-25T09:27:22.629Z,4.27
2022-12-25T09:31:24.708Z,4.31
2022-12-25T09:35:26.653Z,4.34
2022-12-25T09:39:28.565Z,4.38
2022-12-25T09:43:36.840Z,4.36
2022-12-25T09:47:41.852Z,4.40
2022-12-25T09:51:48.653Z,4.47
2022-12-25T09:56:11.799Z,4.50
2022-12-25T10:00:21.428Z,4.47
2022-12-25T10:04:51.803Z,4.46
2022-12-25T10:09:24.384Z,4.51
2022-12-25T10:14:05.467Z,4.60
2022-12-25T10:18:36.384Z,4.58
2022-12-25T10:22:42.255Z,4.67
2022-12-25T10:26:45.045Z,4.77
2022-12-25T10:30:50.035Z,4.83
2022-12-25T10:34:52.069Z,4.89
2022-12-25T10:38:54.814Z,4.90
2022-12-25T10:43:25.184Z,4.95
2022-12-25T10:47:32.577Z,5.04
2022-12-25T10:51:38.120Z,5.12
2022-12-25T10:55:39.951Z,5.15
2022-12-25T10:59:45.007Z,5.18
2022-12-25T11:03:51.843Z,5.21
2022-12-25T11:07:54.917Z,5.21
2022-12-25T11:11:56.826Z,5.12
2022-12-25T11:16:06.085Z,5.01
2022-12-25T11:20:16.826Z,4.98
2022-12-25T11:24:21.556Z,4.99
2022-12-25T11:28:25.621Z,5.03
2022-12-25T11:32:54.888Z,5.07
2022-12-25T11:36:58.376Z,5.14
2022-12-25T11:41:04.061Z,5.20
2022-12-25T11:45:18.292Z,5.29
2022-12-25T11:49:21.764Z,5.38
2022-12-25T11:53:35.645Z,5.40
2022-12-25T11:57:38.686Z,5.39
2022-12-25T12:01:48.517Z,5.38
2022-12-25T12:05:59.737Z,5.39
2022-12-25T12:10:14.712Z,5.43
2022-12-25T12:15:17.344Z,5.48
2022-12-25T12:19:30.965Z,5.53
2022-12-25T12:23:54.478Z,5.58
2022-12-25T12:28:05.260Z,5.57
2022-12-25T12:32:25.150Z,5.60
2022-12-25T12:36:35.637Z,5.62
2022-12-25T12:40:43.299Z,5.58
2022-12-25T12:44:46.832Z,5.60
2022-12-25T12:48:51.467Z,5.64
2022-12-25T12:52:53.689Z,5.65
2022-12-25T12:57:03.652Z,5.57
2022-12-25T13:01:05.882Z,5.51
2022-12-25T13:05:34.750Z,5.55
2022-12-25T13:10:00.148Z,5.61
2022-12-25T13:14:03.204Z,5.65
2022-12-25T13:18:12.746Z,5.63
2022-12-25T13:22:29.530Z,5.63
2022-12-25T13:26:31.591Z,5.64
2022-12-25T13:30:33.652Z,5.67
2022-12-25T13:34:38.525Z,5.68
2022-12-25T13:38:46.381Z,5.63
2022-12-25T13:42:49.942Z,5.58
2022-12-25T13:46:51.867Z,5.52
2022-12-25T13:50:59.127Z,5.50
2022-12-25T13:55:13.850Z,5.49
2022-12-25T13:59:19.937Z,5.50
2022-12-25T14:03:23.704Z,5.50
2022-12-25T14:07:27.627Z,5.48
2022-12-25T14:11:31.876Z,5.43
2022-12-25T14:15:35.935Z,5.41
2022-12-25T14:19:37.762Z,5.40
2022-12-25T14:23:40.310Z,5.38
2022-12-25T14:27:48.923Z,5.34
2022-12-25T14:31:51.984Z,5.24
2022-12-25T14:35:54.026Z,5.17
2022-12-25T14:40:00.382Z,5.16
2022-12-25T14:44:05.736Z,5.16
2022-12-25T14:48:24.509Z,5.14
2022-12-25T14:52:47.256Z,5.15
2022-12-25T14:56:51.820Z,5.16
2022-12-25T15:01:00.141Z,5.18
2022-12-25T15:05:02.185Z,5.24
2022-12-25T15:09:12.794Z,5.25
2022-12-25T15:13:17.378Z,5.23
2022-12-25T15:17:25.971Z,5.21
2022-12-25T15:21:33.790Z,5.19
2022-12-25T15:25:35.677Z,5.22
2022-12-25T15:30:08.575Z,5.23
2022-12-25T15:34:03.052Z,5.23
2022-12-25T15:38:05.132Z,5.21
2022-12-25T15:42:25.236Z,5.15
2022-12-25T15:46:27.418Z,5.12
2022-12-25T15:50:29.837Z,5.10
2022-12-25T15:54:32.676Z,5.06
2022-12-25T15:58:34.601Z,5.03
2022-12-25T16:02:36.682Z,4.97
2022-12-25T16:06:38.820Z,4.91
2022-12-25T16:10:40.673Z,4.89
2022-12-25T16:14:42.753Z,4.91
2022-12-25T16:18:47.733Z,4.94
2022-12-25T16:22:49.917Z,4.97
2022-12-25T16:26:51.850Z,5.00
2022-12-25T16:30:53.773Z,5.03
2022-12-25T16:34:55.637Z,5.04
2022-12-25T16:38:57.564Z,5.00
2022-12-25T16:42:59.511Z,4.98
2022-12-25T16:47:01.472Z,4.98
2022-12-25T16:51:15.709Z,5.00
2022-12-25T16:55:17.701Z,4.98
2022-12-25T16:59:19.684Z,4.98
2022-12-25T17:03:21.597Z,4.97
2022-12-25T17:07:23.725Z,4.91
2022-12-25T17:11:31.946Z,4.91
2022-12-25T17:15:33.841Z,4.95
2022-12-25T17:19:35.803Z,4.96
2022-12-25T17:23:38.353Z,4.94
2022-12-25T17:27:40.275Z,4.92
2022-12-25T17:31:42.136Z,4.87
2022-12-25T17:35:44.072Z,4.89
2022-12-25T17:39:46.963Z,4.91
2022-12-25T17:43:48.853Z,4.88
2022-12-25T17:47:54.541Z,4.83
2022-12-25T17:51:57.393Z,4.80
2022-12-25T17:55:59.384Z,4.83
2022-12-25T18:00:01.325Z,4.85
2022-12-25T18:04:03.738Z,4.84
2022-12-25T18:08:05.831Z,4.82
2022-12-25T18:12:08.948Z,4.79
2022-12-25T18:16:12.488Z,4.75
2022-12-25T18:20:14.463Z,4.74
2022-12-25T18:24:16.894Z,4.74
2022-12-25T18:28:19.038Z,4.76
2022-12-25T18:32:27.877Z,4.76
2022-12-25T18:36:30.510Z,4.74
2022-12-25T18:40:32.589Z,4.67
2022-12-25T18:44:36.275Z,4.61
2022-12-25T18:48:38.374Z,4.60
2022-12-25T18:52:48.731Z,4.64
2022-12-25T18:56:53.858Z,4.62
2022-12-25T19:00:55.882Z,4.58
2022-12-25T19:04:57.900Z,4.54
2022-12-25T19:08:59.794Z,4.54
2022-12-25T19:13:01.749Z,4.55
2022-12-25T19:17:04.448Z,4.55
2022-12-25T19:21:08.812Z,4.51
2022-12-25T19:25:11.228Z,4.47
2022-12-25T19:29:13.821Z,4.44
2022-12-25T19:33:17.984Z,4.42
2022-12-25T19:37:20.137Z,4.43
2022-12-25T19:41:22.285Z,4.41
2022-12-25T19:45:24.212Z,4.39
2022-12-25T19:49:26.098Z,4.33
2022-12-25T19:53:29.527Z,4.28
2022-12-25T19:57:31.468Z,4.27
2022-12-25T20:01:33.920Z,4.29
2022-12-25T20:05:37.552Z,4.31
2022-12-25T20:09:39.454Z,4.28
2022-12-25T20:13:41.330Z,4.24
2022-12-25T20:17:43.204Z,4.19
2022-12-25T20:21:47.183Z,4.15
2022-12-25T20:25:49.038Z,4.13
2022-12-25T20:29:51.059Z,4.10
2022-12-25T20:33:54.824Z,4.05
2022-12-25T20:37:56.722Z,4.01
2022-12-25T20:41:58.628Z,3.99
2022-12-25T20:46:00.985Z,3.94
2022-12-25T20:50:03.619Z,3.90
2022-12-25T20:54:07.504Z,3.88
2022-12-25T20:58:10.397Z,3.86
2022-12-25T21:02:35.657Z,3.88
2022-12-25T21:06:34.466Z,3.86
2022-12-25T21:10:36.345Z,3.83
2022-12-25T21:14:39.771Z,3.82
2022-12-25T21:18:42.161Z,3.75
2022-12-25T21:22:44.119Z,3.67
2022-12-25T21:26:48.219Z,3.62
2022-12-25T21:30:51.471Z,3.58
2022-12-25T21:34:53.327Z,3.56
2022-12-25T21:39:04.608Z,3.54
2022-12-25T21:43:06.856Z,3.54
2022-12-25T21:47:08.870Z,3.55
2022-12-25T21:51:36.556Z,3.55
2022-12-25T21:55:38.662Z,3.55
2022-12-25T21:59:40.576Z,3.52
2022-12-25T22:03:43.862Z,3.45
2022-12-25T22:07:45.773Z,3.39
2022-12-25T22:12:06.423Z,3.34
2022-12-25T22:16:26.933Z,3.32
2022-12-25T22:20:37.712Z,3.31
2022-12-25T22:24:39.638Z,3.31
2022-12-25T22:28:42.009Z,3.33
2022-12-25T22:32:45.791Z,3.35
2022-12-25T22:36:49.917Z,3.36
2022-12-25T22:40:51.846Z,3.38
2022-12-25T22:44:53.763Z,3.39
2022-12-25T22:48:56.293Z,3.40
2022-12-25T22:52:58.380Z,3.42
2022-12-25T22:57:00.490Z,3.43
2022-12-25T23:01:02.592Z,3.40
2022-12-25T23:05:06.792Z,3.36
2022-12-25T23:09:12.368Z,3.33
2022-12-25T23:13:32.950Z,3.33
2022-12-25T23:17:53.540Z,3.34
2022-12-25T23:22:14.261Z,3.36
2022-12-25T23:26:17.919Z,3.40
2022-12-25T23:30:20.696Z,3.42
2022-12-25T23:34:22.970Z,3.40
2022-12-25T23:38:24.800Z,3.37
2022-12-25T23:42:26.764Z,3.35
2022-12-25T23:46:29.433Z,3.34
2022-12-25T23:50:31.370Z,3.35
2022-12-25T23:54:33.627Z,3.37
2022-12-25T23:58:36.041Z,3.36
